Time;durP1;ratioP1;P1;durP2;ratioP2;P2;SDS_P1;SDS_P2;PMS_P1;PMS_P2;Temp;Humidity;BMP_temperature;BMP_pressure;BME280_temperature;BME280_humidity;BME280_pressure;Samples;Min_cycle;Max_cycle;Signal;HPM_P1;HPM_P2
2022/01/12 00:00:39;;;;;;;1999.90;999.90;;;;;;;0.68;76.29;103161.13;15340241;28;20131;-65
2022/01/12 00:08:15;;;;;;;1999.90;999.90;;;;;;;0.52;77.29;103165.09;15311158;29;20095;-64
2022/01/12 00:15:56;;;;;;;1999.90;999.90;;;;;;;0.62;77.56;103168.28;15355307;29;20073;-63
2022/01/12 00:23:32;;;;;;;1999.90;999.90;;;;;;;1.00;76.69;103160.34;15353989;28;20135;-64
2022/01/12 00:39:20;;;;;;;1999.90;999.90;;;;;;;0.90;77.71;103137.91;15311548;29;20051;-64
2022/01/12 00:47:23;;;;;;;1999.90;999.90;;;;;;;1.03;77.13;103143.41;15348672;28;20421;-64
2022/01/12 00:55:06;;;;;;;1999.90;999.90;;;;;;;0.78;77.63;103145.94;15335819;29;20086;-64
2022/01/12 01:02:46;;;;;;;1999.90;999.90;;;;;;;0.83;77.75;103148.03;15317945;29;20452;-64
2022/01/12 01:10:39;;;;;;;1999.90;999.90;;;;;;;0.67;77.66;103156.69;15354392;28;20059;-63
2022/01/12 01:26:09;;;;;;;1999.90;999.90;;;;;;;0.57;78.52;103135.97;15333418;28;20039;-66
2022/01/12 01:34:06;;;;;;;1999.90;999.90;;;;;;;0.56;78.70;103142.50;15352772;28;20042;-64
2022/01/12 01:41:41;;;;;;;1999.90;999.90;;;;;;;0.82;78.32;103147.19;15324937;29;20497;-63
2022/01/12 01:57:48;;;;;;;1999.90;999.90;;;;;;;0.73;78.91;103148.47;15358965;29;20125;-64
2022/01/12 02:05:43;;;;;;;1999.90;999.90;;;;;;;0.72;78.24;103151.41;15360883;29;20050;-63
2022/01/12 02:13:16;;;;;;;1999.90;999.90;;;;;;;1.06;78.62;103147.69;15395134;28;20104;-63
2022/01/12 02:54:04;;;;;;;;;;;;;;;;;;;;;
2022/01/12 03:02:04;;;;;;;1999.90;999.90;;;;;;;0.92;78.56;103135.81;15375429;28;20135;-66
2022/01/12 03:09:38;;;;;;;1999.90;999.90;;;;;;;1.02;77.79;103138.97;15326437;29;20078;-64
2022/01/12 03:17:15;;;;;;;1999.90;999.90;;;;;;;0.76;78.92;103130.72;15340088;28;20144;-65
2022/01/12 03:24:51;;;;;;;1999.90;999.90;;;;;;;1.12;78.41;103125.66;15330777;29;20059;-66
2022/01/12 03:32:32;;;;;;;1999.90;999.90;;;;;;;0.87;78.83;103124.59;15381650;28;20043;-64
2022/01/12 03:40:13;;;;;;;1999.90;999.90;;;;;;;1.20;78.34;103138.38;15308112;29;20047;-64
2022/01/12 03:47:45;;;;;;;1999.90;999.90;;;;;;;0.99;78.46;103131.16;15329785;29;20509;-63
2022/01/12 03:55:22;;;;;;;1999.90;999.90;;;;;;;1.02;79.11;103118.88;15337815;29;20082;-64
2022/01/12 04:02:56;;;;;;;1999.90;999.90;;;;;;;1.26;78.27;103123.78;15366728;28;20279;-64
2022/01/12 04:10:50;;;;;;;1999.90;999.90;;;;;;;1.17;79.01;103125.03;15362770;28;20047;-65
2022/01/12 04:18:23;;;;;;;1999.90;999.90;;;;;;;1.17;78.32;103132.44;15343329;29;20040;-64
2022/01/12 04:25:59;;;;;;;1999.90;999.90;;;;;;;1.14;78.58;103134.53;15338849;29;20035;-64
2022/01/12 04:33:32;;;;;;;1999.90;999.90;;;;;;;1.13;78.84;103126.50;15344813;29;20055;-64
2022/01/12 04:41:13;;;;;;;1999.90;999.90;;;;;;;1.21;78.12;103136.47;15353937;29;20409;-64
2022/01/12 04:48:56;;;;;;;1999.90;999.90;;;;;;;1.13;78.56;103134.75;15336067;28;20051;-64
2022/01/12 04:56:36;;;;;;;1999.90;999.90;;;;;;;1.15;78.81;103127.16;15324276;28;20036;-65
2022/01/12 05:20:52;;;;;;;1999.90;999.90;;;;;;;1.45;77.85;103136.66;15380254;28;20062;-65
2022/01/12 05:28:38;;;;;;;1999.90;999.90;;;;;;;1.43;78.42;103124.16;15286636;29;20095;-65
2022/01/12 05:36:30;;;;;;;;;;;;;;;1.64;77.38;103129.44;15336846;29;20048;-65
2022/01/12 05:44:40;;;;;;;1999.90;999.90;;;;;;;1.79;77.38;103148.47;15337395;28;19922;-64
2022/01/12 05:52:19;;;;;;;1999.90;999.90;;;;;;;1.68;77.30;103110.59;15398026;28;20050;-65
2022/01/12 06:00:15;;;;;;;1999.90;999.90;;;;;;;1.76;77.30;103109.50;15363333;28;20035;-64
2022/01/12 06:08:06;;;;;;;1999.90;999.90;;;;;;;1.60;77.59;103105.31;15379800;28;20154;-65
2022/01/12 06:15:45;;;;;;;1999.90;999.90;;;;;;;1.68;77.41;103099.56;15316898;29;20047;-65
2022/01/12 06:23:20;;;;;;;1999.90;999.90;;;;;;;1.38;78.37;103090.97;15318344;29;20094;-65
2022/01/12 06:31:13;;;;;;;1999.90;999.90;;;;;;;1.51;78.00;103107.44;15322067;29;20040;-65
2022/01/12 06:39:07;;;;;;;1999.90;999.90;;;;;;;1.56;78.37;103104.88;15361117;29;20079;-64
2022/01/12 06:47:02;;;;;;;1999.90;999.90;;;;;;;1.68;77.62;103133.47;15309411;29;20106;-66
2022/01/12 06:54:54;;;;;;;1999.90;999.90;;;;;;;1.66;77.30;103123.69;15362879;28;20035;-66
2022/01/12 07:02:32;;;;;;;1999.90;999.90;;;;;;;1.54;78.50;103122.66;15369564;28;20055;-65
2022/01/12 07:10:09;;;;;;;1999.90;999.90;;;;;;;1.58;78.55;103129.47;15370995;28;20043;-65
2022/01/12 07:17:46;;;;;;;1999.90;999.90;;;;;;;1.59;78.70;103144.91;15423004;28;20047;-65
2022/01/12 07:25:19;;;;;;;1999.90;999.90;;;;;;;1.74;77.66;103146.34;15351394;28;20477;-65
2022/01/12 07:32:53;;;;;;;1999.90;999.90;;;;;;;1.86;77.99;103148.44;15378395;28;20095;-65
2022/01/12 07:40:25;;;;;;;1999.90;999.90;;;;;;;1.83;77.64;103149.72;15399488;28;20046;-65
2022/01/12 07:48:04;;;;;;;1999.90;999.90;;;;;;;1.99;77.67;103140.16;15419947;28;20078;-61
2022/01/12 07:55:37;;;;;;;1999.90;999.90;;;;;;;1.92;77.52;103148.44;15436407;28;20469;-62
2022/01/12 08:03:23;;;;;;;1999.90;999.90;;;;;;;2.31;76.38;103161.22;15435175;28;20423;-61
2022/01/12 08:10:56;;;;;;;1999.90;999.90;;;;;;;2.64;75.27;103159.38;15397559;28;20139;-66
2022/01/12 08:18:30;;;;;;;1999.90;999.90;;;;;;;3.09;74.14;103182.19;15367148;29;20047;-59
2022/01/12 08:26:05;;;;;;;1999.90;999.90;;;;;;;3.17;73.59;103176.41;15369174;28;20070;-64
2022/01/12 08:33:39;;;;;;;1999.90;999.90;;;;;;;3.13;73.26;103177.94;15373011;28;20075;-60
2022/01/12 08:41:12;;;;;;;1999.90;999.90;;;;;;;3.43;72.93;103173.41;15365675;28;20050;-60
2022/01/12 08:48:46;;;;;;;1999.90;999.90;;;;;;;3.85;72.43;103187.47;15379362;28;20047;-59
2022/01/12 08:56:20;;;;;;;1999.90;999.90;;;;;;;4.22;71.30;103190.28;15372033;28;20055;-63
2022/01/12 09:03:54;;;;;;;1999.90;999.90;;;;;;;4.34;70.36;103191.19;15369600;28;20134;-63
2022/01/12 09:11:27;;;;;;;1999.90;999.90;;;;;;;4.61;69.59;103198.09;15328532;28;20401;-62
2022/01/12 09:19:01;;;;;;;1999.90;999.90;;;;;;;4.92;69.83;103185.09;15366467;29;20039;-62
2022/01/12 09:26:37;;;;;;;1999.90;999.90;;;;;;;4.69;69.83;103208.00;15372030;29;20039;-63
2022/01/12 09:34:56;;;;;;;1999.90;999.90;;;;;;;5.30;68.89;103195.78;15344694;28;20040;-63
2022/01/12 09:42:29;;;;;;;1999.90;999.90;;;;;;;5.33;69.30;103189.78;15376855;28;20512;-62
2022/01/12 09:50:04;;;;;;;1999.90;999.90;;;;;;;5.70;68.14;103190.41;15372646;28;20054;-63
2022/01/12 09:57:39;;;;;;;1999.90;999.90;;;;;;;5.49;70.10;103186.31;15381657;28;20444;-61
2022/01/12 10:05:13;;;;;;;1999.90;999.90;;;;;;;5.80;69.40;103165.72;15370797;28;20039;-62
2022/01/12 10:12:53;;;;;;;1999.90;999.90;;;;;;;6.55;67.95;103156.56;15360438;28;20055;-67
2022/01/12 10:20:28;;;;;;;1999.90;999.90;;;;;;;6.29;67.88;103146.88;15364659;28;20228;-61
2022/01/12 10:28:12;;;;;;;1999.90;999.90;;;;;;;5.46;71.07;103161.03;15363281;29;20047;-64
2022/01/12 10:35:53;;;;;;;1999.90;999.90;;;;;;;6.19;69.72;103141.13;15374304;28;20054;-62
2022/01/12 10:43:28;;;;;;;1999.90;999.90;;;;;;;5.86;71.21;103138.16;15384169;28;20172;-65
2022/01/12 10:51:02;;;;;;;1999.90;999.90;;;;;;;5.79;71.67;103136.34;15382232;28;20051;-63
2022/01/12 10:58:37;;;;;;;1999.90;999.90;;;;;;;6.10;70.72;103131.50;15386317;28;20039;-63
2022/01/12 11:06:13;;;;;;;1999.90;999.90;;;;;;;5.58;72.37;103141.66;15378162;28;20556;-63
2022/01/12 11:13:56;;;;;;;1999.90;999.90;;;;;;;5.76;72.13;103139.59;15347814;28;20465;-64
2022/01/12 11:21:41;;;;;;;1999.90;999.90;;;;;;;5.51;72.63;103153.66;15378220;28;20140;-64
2022/01/12 11:29:24;;;;;;;1999.90;999.90;;;;;;;5.95;71.70;103140.34;15377157;28;20378;-63
2022/01/12 11:36:58;;;;;;;1999.90;999.90;;;;;;;5.76;72.66;103130.44;15372702;28;20441;-63
2022/01/12 11:44:38;;;;;;;1999.90;999.90;;;;;;;5.86;71.88;103136.22;15376858;28;20051;-63
2022/01/12 11:52:18;;;;;;;1999.90;999.90;;;;;;;5.94;72.06;103138.66;15387426;28;20480;-64
2022/01/12 11:59:54;;;;;;;1999.90;999.90;;;;;;;6.10;71.84;103144.53;15365173;28;20047;-63
2022/01/12 12:07:29;;;;;;;1999.90;999.90;;;;;;;6.08;72.23;103153.94;15381747;28;20094;-64
2022/01/12 12:15:05;;;;;;;1999.90;999.90;;;;;;;5.94;73.45;103152.50;15350699;28;20043;-63
2022/01/12 12:22:44;;;;;;;1999.90;999.90;;;;;;;5.83;74.92;103146.94;15372220;28;20051;-64
2022/01/12 12:30:19;;;;;;;1999.90;999.90;;;;;;;6.34;73.71;103149.75;15356732;28;20043;-63
2022/01/12 12:38:00;;;;;;;1999.90;999.90;;;;;;;6.33;73.56;103161.94;15375980;28;20043;-63
2022/01/12 12:45:40;;;;;;;1999.90;999.90;;;;;;;6.34;74.02;103160.84;15365221;28;20117;-63
2022/01/12 12:53:16;;;;;;;1999.90;999.90;;;;;;;6.04;74.25;103160.19;15352915;28;20035;-63
2022/01/12 13:00:52;;;;;;;1999.90;999.90;;;;;;;5.83;75.29;103155.25;15362018;28;20509;-64
2022/01/12 13:08:29;;;;;;;1999.90;999.90;;;;;;;6.04;74.65;103177.69;15343256;29;20039;-67
2022/01/12 13:16:10;;;;;;;1999.90;999.90;;;;;;;5.92;75.40;103164.91;15358153;28;20535;-63
2022/01/12 13:23:47;;;;;;;1999.90;999.90;;;;;;;6.16;74.80;103180.44;15362661;28;20091;-63
2022/01/12 13:31:22;;;;;;;1999.90;999.90;;;;;;;6.26;74.81;103164.03;15367899;28;20448;-62
2022/01/12 13:39:01;;;;;;;1999.90;999.90;;;;;;;6.19;74.58;103157.75;15354932;29;20039;-65
2022/01/12 13:46:38;;;;;;;1999.90;999.90;;;;;;;6.34;73.93;103143.38;15351232;28;20036;-63
2022/01/12 13:54:16;;;;;;;1999.90;999.90;;;;;;;6.39;74.42;103150.97;15350450;28;20138;-63
2022/01/12 14:01:50;;;;;;;1999.90;999.90;;;;;;;6.16;74.85;103166.59;15368658;28;20071;-64
2022/01/12 14:09:30;;;;;;;1999.90;999.90;;;;;;;6.45;73.89;103164.69;15364550;28;20066;-66
2022/01/12 14:17:10;;;;;;;1999.90;999.90;;;;;;;6.38;74.92;103157.59;15363243;28;20043;-63
2022/01/12 14:24:58;;;;;;;1999.90;999.90;;;;;;;6.63;73.87;103158.94;15378303;28;20059;-63
2022/01/12 14:32:35;;;;;;;1999.90;999.90;;;;;;;6.39;74.92;103160.13;15385131;28;20066;-64
2022/01/12 14:40:13;;;;;;;1999.90;999.90;;;;;;;6.48;75.25;103149.50;15388553;28;20576;-64
2022/01/12 14:47:46;;;;;;;1999.90;999.90;;;;;;;6.44;76.18;103156.59;15373137;29;20063;-63
2022/01/12 14:55:20;;;;;;;1999.90;999.90;;;;;;;6.52;76.12;103167.31;15381371;28;20127;-63
2022/01/12 15:02:55;;;;;;;1999.90;999.90;;;;;;;6.50;76.78;103181.44;15380209;28;20047;-64
2022/01/12 15:10:31;;;;;;;1999.90;999.90;;;;;;;6.29;77.78;103187.66;15370391;28;20126;-64
2022/01/12 15:18:03;;;;;;;1999.90;999.90;;;;;;;6.50;76.86;103180.59;15379603;28;20045;-66
2022/01/12 15:25:38;;;;;;;1999.90;999.90;;;;;;;6.59;76.51;103195.78;15377634;28;20077;-63
2022/01/12 15:33:12;;;;;;;1999.90;999.90;;;;;;;6.49;77.07;103226.06;15363938;28;20063;-61
2022/01/12 15:40:46;;;;;;;1999.90;999.90;;;;;;;6.64;76.58;103201.41;15373735;28;20098;-63
2022/01/12 15:48:19;;;;;;;1999.90;999.90;;;;;;;6.38;77.69;103210.31;15357942;29;20352;-64
2022/01/12 15:55:53;;;;;;;1999.90;999.90;;;;;;;6.01;79.79;103199.50;15376792;28;20049;-64
2022/01/12 16:03:27;;;;;;;1999.90;999.90;;;;;;;5.89;79.13;103201.41;15380753;28;20086;-64
2022/01/12 16:11:08;;;;;;;1999.90;999.90;;;;;;;5.65;77.28;103209.72;15356944;28;20043;-66
2022/01/12 16:18:41;;;;;;;1999.90;999.90;;;;;;;5.44;76.72;103211.13;15359734;29;20067;-66
2022/01/12 16:26:17;;;;;;;1999.90;999.90;;;;;;;5.64;74.12;103218.25;15378721;28;20031;-63
2022/01/12 16:33:51;;;;;;;1999.90;999.90;;;;;;;5.52;74.46;103223.75;15375330;28;20039;-64
2022/01/12 16:41:26;;;;;;;1999.90;999.90;;;;;;;5.88;72.80;103249.59;15374908;28;20051;-65
2022/01/12 16:48:58;;;;;;;1999.90;999.90;;;;;;;5.77;72.54;103251.28;15363963;29;20114;-66
2022/01/12 16:56:32;;;;;;;1999.90;999.90;;;;;;;5.85;71.78;103222.38;15356109;28;20102;-65
2022/01/12 17:04:05;;;;;;;1999.90;999.90;;;;;;;5.90;71.13;103211.41;15372672;28;20051;-66
2022/01/12 17:11:39;;;;;;;1999.90;999.90;;;;;;;5.99;71.24;103238.53;15369629;28;20440;-66
2022/01/12 17:19:14;;;;;;;1999.90;999.90;;;;;;;5.83;71.85;103236.44;15372591;29;20062;-65
2022/01/12 17:27:06;;;;;;;1999.90;999.90;;;;;;;5.78;71.95;103236.34;15371606;28;20073;-65
2022/01/12 17:34:40;;;;;;;1999.90;999.90;;;;;;;5.64;71.97;103229.34;15367622;28;20106;-65
2022/01/12 17:42:16;;;;;;;1999.90;999.90;;;;;;;5.85;70.75;103227.91;15368217;28;20073;-65
2022/01/12 17:50:08;;;;;;;1999.90;999.90;;;;;;;5.83;71.22;103235.59;15374255;28;20059;-65
2022/01/12 17:57:43;;;;;;;1999.90;999.90;;;;;;;5.81;72.12;103249.69;15377321;28;20051;-65
2022/01/12 18:05:17;;;;;;;1999.90;999.90;;;;;;;5.93;71.39;103246.97;15378025;28;20509;-66
2022/01/12 18:12:54;;;;;;;1999.90;999.90;;;;;;;6.11;70.15;103257.09;15381087;28;20039;-65
2022/01/12 18:20:27;;;;;;;1999.90;999.90;;;;;;;6.02;70.57;103276.03;15382168;28;20051;-63
2022/01/12 18:28:01;;;;;;;1999.90;999.90;;;;;;;6.03;71.31;103278.53;15388124;28;20560;-64
2022/01/12 18:35:37;;;;;;;1999.90;999.90;;;;;;;6.11;70.33;103287.59;15370571;28;20071;-68
2022/01/12 18:43:11;;;;;;;1999.90;999.90;;;;;;;5.94;71.33;103291.09;15384362;28;20094;-63
2022/01/12 18:50:45;;;;;;;1999.90;999.90;;;;;;;5.97;71.46;103282.28;15376048;28;20051;-66
2022/01/12 18:58:35;;;;;;;1999.90;999.90;;;;;;;6.17;71.17;103278.31;15373696;28;20127;-66
2022/01/12 19:06:11;;;;;;;1999.90;999.90;;;;;;;5.82;71.95;103281.88;15367656;28;20050;-64
2022/01/12 19:13:49;;;;;;;1999.90;999.90;;;;;;;5.96;71.61;103277.00;15375666;28;20050;-69
2022/01/12 19:21:23;;;;;;;1999.90;999.90;;;;;;;5.99;71.09;103282.06;15350698;29;20321;-64
2022/01/12 19:29:09;;;;;;;1999.90;999.90;;;;;;;5.92;71.83;103271.06;15387427;28;20047;-65
2022/01/12 19:36:48;;;;;;;1999.90;999.90;;;;;;;5.55;72.92;103280.63;15368885;28;20047;-64
2022/01/12 19:44:24;;;;;;;1999.90;999.90;;;;;;;5.49;72.94;103285.19;15385358;28;20381;-65
2022/01/12 19:52:06;;;;;;;1999.90;999.90;;;;;;;5.99;72.21;103280.13;15436855;28;20066;-65
2022/01/12 19:59:44;;;;;;;1999.90;999.90;;;;;;;5.61;72.48;103276.91;15404349;28;20047;-65
2022/01/12 20:07:48;;;;;;;1999.90;999.90;;;;;;;5.92;71.70;103275.78;15437257;28;20105;-65
2022/01/12 20:15:52;;;;;;;1999.90;999.90;;;;;;;5.62;72.41;103268.34;15430712;28;20051;-65
2022/01/12 20:24:07;;;;;;;1999.90;999.90;;;;;;;5.41;73.40;103250.34;15420149;28;20043;-65
2022/01/12 20:31:48;;;;;;;1999.90;999.90;;;;;;;5.51;73.23;103260.84;15419305;28;20051;-66
2022/01/12 20:39:33;;;;;;;1999.90;999.90;;;;;;;5.68;73.08;103261.03;15436441;28;20424;-64
2022/01/12 20:47:08;;;;;;;1999.90;999.90;;;;;;;5.53;73.42;103277.25;15373976;28;20070;-65
2022/01/12 20:54:51;;;;;;;1999.90;999.90;;;;;;;5.75;72.40;103267.31;15375110;28;20055;-66
2022/01/12 21:02:28;;;;;;;1999.90;999.90;;;;;;;5.79;72.47;103258.25;15372999;28;20090;-66
2022/01/12 21:10:02;;;;;;;1999.90;999.90;;;;;;;5.72;72.39;103271.38;15325297;29;20047;-67
2022/01/12 21:17:40;;;;;;;1999.90;999.90;;;;;;;5.68;73.58;103284.03;15344824;28;20091;-65
2022/01/12 21:25:12;;;;;;;1999.90;999.90;;;;;;;5.86;73.05;103272.00;15330695;28;20055;-69
2022/01/12 21:32:46;;;;;;;1999.90;999.90;;;;;;;6.14;72.76;103278.78;15352745;28;20513;-69
2022/01/12 21:40:34;;;;;;;1999.90;999.90;;;;;;;5.90;73.42;103277.91;15360911;28;20040;-69
2022/01/12 21:48:11;;;;;;;1999.90;999.90;;;;;;;5.99;73.56;103259.88;15365486;28;20429;-67
2022/01/12 21:55:44;;;;;;;1999.90;999.90;;;;;;;6.12;72.93;103258.78;15494255;23;20215;-61
2022/01/12 22:03:18;;;;;;;1999.90;999.90;;;;;;;6.19;73.35;103248.44;15645529;28;20045;-56
2022/01/12 22:10:56;;;;;;;1999.90;999.90;;;;;;;6.05;73.33;103245.06;15653166;28;20204;-57
2022/01/12 22:18:30;;;;;;;1999.90;999.90;;;;;;;6.13;74.01;103244.69;15658504;28;20144;-55
2022/01/12 22:26:03;;;;;;;1999.90;999.90;;;;;;;6.18;74.17;103246.75;15661941;28;20055;-58
2022/01/12 22:33:37;;;;;;;1999.90;999.90;;;;;;;6.37;73.27;103245.53;15639418;28;20451;-57
2022/01/12 22:41:10;;;;;;;1999.90;999.90;;;;;;;6.10;73.94;103227.69;15647194;28;20049;-60
2022/01/12 22:48:44;;;;;;;1999.90;999.90;;;;;;;6.22;74.01;103203.56;15664932;28;20096;-56
2022/01/12 22:56:20;;;;;;;1999.90;999.90;;;;;;;6.32;73.20;103193.53;15621387;28;20045;-56
2022/01/12 23:03:57;;;;;;;1999.90;999.90;;;;;;;6.35;73.65;103181.09;15624032;28;20505;-59
2022/01/12 23:11:30;;;;;;;1999.90;999.90;;;;;;;6.24;74.27;103179.19;15626347;28;20052;-57
2022/01/12 23:19:04;;;;;;;1999.90;999.90;;;;;;;6.51;73.35;103197.00;15672547;28;20045;-59
2022/01/12 23:26:37;;;;;;;1999.90;999.90;;;;;;;6.35;73.95;103206.91;15631654;28;20057;-57
2022/01/12 23:42:12;;;;;;;1999.90;999.90;;;;;;;6.53;73.10;103202.28;15602758;28;20052;-57
2022/01/12 23:50:00;;;;;;;1999.90;999.90;;;;;;;6.50;73.29;103200.03;15636823;28;20148;-59
2022/01/12 23:57:32;;;;;;;1999.90;999.90;;;;;;;6.59;73.84;103182.75;15605477;28;20219;-59
